sensor_id;sensor_type;location;lat;lon;timestamp;P1;durP1;ratioP1;P2;durP2;ratioP2
15354;SDS011;7777;52.254;9.618;2022-08-03T00:00:54;3.60;;;2.43;;
15354;SDS011;7777;52.254;9.618;2022-08-03T00:03:20;2.87;;;2.10;;
15354;SDS011;7777;52.254;9.618;2022-08-03T00:05:46;3.17;;;2.47;;
15354;SDS011;7777;52.254;9.618;2022-08-03T00:08:12;2.67;;;2.27;;
15354;SDS011;7777;52.254;9.618;2022-08-03T00:10:37;2.90;;;2.10;;
15354;SDS011;7777;52.254;9.618;2022-08-03T00:13:03;4.73;;;2.47;;
15354;SDS011;7777;52.254;9.618;2022-08-03T00:15:29;4.23;;;2.37;;
15354;SDS011;7777;52.254;9.618;2022-08-03T00:17:54;3.67;;;2.33;;
15354;SDS011;7777;52.254;9.618;2022-08-03T00:20:20;3.17;;;2.17;;
15354;SDS011;7777;52.254;9.618;2022-08-03T00:22:46;4.13;;;2.43;;
15354;SDS011;7777;52.254;9.618;2022-08-03T00:25:12;2.67;;;1.80;;
15354;SDS011;7777;52.254;9.618;2022-08-03T00:27:38;4.30;;;2.63;;
15354;SDS011;7777;52.254;9.618;2022-08-03T00:30:04;5.03;;;2.90;;
15354;SDS011;7777;52.254;9.618;2022-08-03T00:32:31;3.60;;;2.83;;
15354;SDS011;7777;52.254;9.618;2022-08-03T00:34:56;3.27;;;2.73;;
15354;SDS011;7777;52.254;9.618;2022-08-03T00:37:22;4.60;;;2.80;;
15354;SDS011;7777;52.254;9.618;2022-08-03T00:39:48;3.67;;;2.60;;
15354;SDS011;7777;52.254;9.618;2022-08-03T00:42:17;3.43;;;2.20;;
15354;SDS011;7777;52.254;9.618;2022-08-03T00:44:43;4.43;;;2.90;;
15354;SDS011;7777;52.254;9.618;2022-08-03T00:47:09;4.40;;;2.70;;
15354;SDS011;7777;52.254;9.618;2022-08-03T00:49:36;2.47;;;2.27;;
15354;SDS011;7777;52.254;9.618;2022-08-03T00:52:04;3.33;;;2.47;;
15354;SDS011;7777;52.254;9.618;2022-08-03T00:54:34;4.67;;;2.60;;
15354;SDS011;7777;52.254;9.618;2022-08-03T00:57:02;5.03;;;2.37;;
15354;SDS011;7777;52.254;9.618;2022-08-03T00:59:28;3.90;;;2.70;;
15354;SDS011;7777;52.254;9.618;2022-08-03T01:01:55;2.33;;;2.10;;
15354;SDS011;7777;52.254;9.618;2022-08-03T01:04:21;3.60;;;2.90;;
15354;SDS011;7777;52.254;9.618;2022-08-03T01:09:36;3.17;;;2.33;;
15354;SDS011;7777;52.254;9.618;2022-08-03T01:12:36;2.57;;;2.27;;
15354;SDS011;7777;52.254;9.618;2022-08-03T01:18:13;3.70;;;2.93;;
15354;SDS011;7777;52.254;9.618;2022-08-03T01:20:47;3.27;;;2.30;;
15354;SDS011;7777;52.254;9.618;2022-08-03T01:26:08;3.00;;;2.70;;
15354;SDS011;7777;52.254;9.618;2022-08-03T01:31:56;2.50;;;2.30;;
15354;SDS011;7777;52.254;9.618;2022-08-03T01:34:34;3.23;;;2.17;;
15354;SDS011;7777;52.254;9.618;2022-08-03T01:37:06;4.03;;;2.37;;
15354;SDS011;7777;52.254;9.618;2022-08-03T01:39:35;3.50;;;2.50;;
15354;SDS011;7777;52.254;9.618;2022-08-03T01:42:04;3.57;;;2.60;;
15354;SDS011;7777;52.254;9.618;2022-08-03T01:44:39;5.03;;;2.50;;
15354;SDS011;7777;52.254;9.618;2022-08-03T01:47:08;3.57;;;2.70;;
15354;SDS011;7777;52.254;9.618;2022-08-03T01:49:36;3.33;;;2.43;;
15354;SDS011;7777;52.254;9.618;2022-08-03T01:52:04;4.93;;;2.63;;
15354;SDS011;7777;52.254;9.618;2022-08-03T01:54:35;3.13;;;2.70;;
15354;SDS011;7777;52.254;9.618;2022-08-03T01:57:06;3.03;;;2.40;;
15354;SDS011;7777;52.254;9.618;2022-08-03T01:59:34;4.13;;;3.00;;
15354;SDS011;7777;52.254;9.618;2022-08-03T02:02:02;9.80;;;2.60;;
15354;SDS011;7777;52.254;9.618;2022-08-03T02:04:29;7.37;;;3.10;;
15354;SDS011;7777;52.254;9.618;2022-08-03T02:06:56;2.43;;;2.23;;
15354;SDS011;7777;52.254;9.618;2022-08-03T02:09:23;3.70;;;2.60;;
15354;SDS011;7777;52.254;9.618;2022-08-03T02:11:50;5.17;;;2.53;;
15354;SDS011;7777;52.254;9.618;2022-08-03T02:14:18;4.13;;;3.00;;
15354;SDS011;7777;52.254;9.618;2022-08-03T02:16:45;3.73;;;2.50;;
15354;SDS011;7777;52.254;9.618;2022-08-03T02:19:13;4.17;;;2.50;;
15354;SDS011;7777;52.254;9.618;2022-08-03T02:21:40;5.13;;;2.60;;
15354;SDS011;7777;52.254;9.618;2022-08-03T02:24:08;2.57;;;2.30;;
15354;SDS011;7777;52.254;9.618;2022-08-03T02:26:38;2.73;;;2.40;;
15354;SDS011;7777;52.254;9.618;2022-08-03T02:29:06;3.90;;;2.40;;
15354;SDS011;7777;52.254;9.618;2022-08-03T02:31:48;3.53;;;2.47;;
15354;SDS011;7777;52.254;9.618;2022-08-03T02:34:15;3.97;;;2.67;;
15354;SDS011;7777;52.254;9.618;2022-08-03T02:36:45;2.90;;;2.37;;
15354;SDS011;7777;52.254;9.618;2022-08-03T02:39:15;4.10;;;2.60;;
15354;SDS011;7777;52.254;9.618;2022-08-03T02:41:46;3.27;;;2.60;;
15354;SDS011;7777;52.254;9.618;2022-08-03T02:44:17;3.17;;;2.30;;
15354;SDS011;7777;52.254;9.618;2022-08-03T02:46:51;2.80;;;2.30;;
15354;SDS011;7777;52.254;9.618;2022-08-03T02:49:25;4.30;;;3.07;;
15354;SDS011;7777;52.254;9.618;2022-08-03T02:51:52;2.73;;;2.50;;
15354;SDS011;7777;52.254;9.618;2022-08-03T02:54:20;5.80;;;2.77;;
15354;SDS011;7777;52.254;9.618;2022-08-03T02:56:48;3.37;;;2.50;;
15354;SDS011;7777;52.254;9.618;2022-08-03T02:59:16;2.53;;;2.20;;
15354;SDS011;7777;52.254;9.618;2022-08-03T03:01:44;3.83;;;2.30;;
15354;SDS011;7777;52.254;9.618;2022-08-03T03:04:10;3.80;;;2.67;;
15354;SDS011;7777;52.254;9.618;2022-08-03T03:06:37;4.17;;;2.43;;
15354;SDS011;7777;52.254;9.618;2022-08-03T03:09:04;3.87;;;2.73;;
15354;SDS011;7777;52.254;9.618;2022-08-03T03:11:30;2.97;;;2.53;;
15354;SDS011;7777;52.254;9.618;2022-08-03T03:13:57;4.00;;;2.77;;
15354;SDS011;7777;52.254;9.618;2022-08-03T03:16:25;2.63;;;2.10;;
15354;SDS011;7777;52.254;9.618;2022-08-03T03:18:51;2.73;;;2.50;;
15354;SDS011;7777;52.254;9.618;2022-08-03T03:21:19;5.03;;;2.67;;
15354;SDS011;7777;52.254;9.618;2022-08-03T03:23:46;2.77;;;2.40;;
15354;SDS011;7777;52.254;9.618;2022-08-03T03:26:13;4.17;;;2.70;;
15354;SDS011;7777;52.254;9.618;2022-08-03T03:28:39;4.60;;;2.60;;
15354;SDS011;7777;52.254;9.618;2022-08-03T03:31:06;3.60;;;2.60;;
15354;SDS011;7777;52.254;9.618;2022-08-03T03:33:33;3.10;;;2.43;;
15354;SDS011;7777;52.254;9.618;2022-08-03T03:35:59;5.43;;;2.50;;
15354;SDS011;7777;52.254;9.618;2022-08-03T03:38:26;4.00;;;2.70;;
15354;SDS011;7777;52.254;9.618;2022-08-03T03:40:52;3.70;;;2.80;;
15354;SDS011;7777;52.254;9.618;2022-08-03T03:43:19;3.40;;;2.37;;
15354;SDS011;7777;52.254;9.618;2022-08-03T03:45:47;2.77;;;2.23;;
15354;SDS011;7777;52.254;9.618;2022-08-03T03:48:13;5.27;;;2.63;;
15354;SDS011;7777;52.254;9.618;2022-08-03T03:50:40;4.67;;;2.57;;
15354;SDS011;7777;52.254;9.618;2022-08-03T03:53:08;2.80;;;2.50;;
15354;SDS011;7777;52.254;9.618;2022-08-03T03:55:38;4.73;;;2.63;;
15354;SDS011;7777;52.254;9.618;2022-08-03T03:58:05;8.10;;;2.80;;
15354;SDS011;7777;52.254;9.618;2022-08-03T04:00:31;5.13;;;2.47;;
15354;SDS011;7777;52.254;9.618;2022-08-03T04:02:57;3.00;;;2.50;;
15354;SDS011;7777;52.254;9.618;2022-08-03T04:05:23;2.80;;;2.50;;
15354;SDS011;7777;52.254;9.618;2022-08-03T04:08:08;7.67;;;2.60;;
15354;SDS011;7777;52.254;9.618;2022-08-03T04:13:57;4.43;;;2.93;;
15354;SDS011;7777;52.254;9.618;2022-08-03T04:16:34;4.07;;;2.10;;
15354;SDS011;7777;52.254;9.618;2022-08-03T04:19:05;3.93;;;2.87;;
15354;SDS011;7777;52.254;9.618;2022-08-03T04:21:37;3.40;;;2.67;;
15354;SDS011;7777;52.254;9.618;2022-08-03T04:24:08;3.77;;;2.33;;
15354;SDS011;7777;52.254;9.618;2022-08-03T04:26:36;5.63;;;2.80;;
15354;SDS011;7777;52.254;9.618;2022-08-03T04:29:04;3.50;;;2.70;;
15354;SDS011;7777;52.254;9.618;2022-08-03T04:31:32;3.67;;;2.30;;
15354;SDS011;7777;52.254;9.618;2022-08-03T04:34:00;3.67;;;2.40;;
15354;SDS011;7777;52.254;9.618;2022-08-03T04:36:30;3.70;;;2.33;;
15354;SDS011;7777;52.254;9.618;2022-08-03T04:39:04;4.83;;;2.57;;
15354;SDS011;7777;52.254;9.618;2022-08-03T04:41:36;2.83;;;2.10;;
15354;SDS011;7777;52.254;9.618;2022-08-03T04:44:03;7.73;;;2.27;;
15354;SDS011;7777;52.254;9.618;2022-08-03T04:46:34;3.07;;;2.23;;
15354;SDS011;7777;52.254;9.618;2022-08-03T04:49:03;3.10;;;2.13;;
15354;SDS011;7777;52.254;9.618;2022-08-03T04:51:30;5.17;;;2.37;;
15354;SDS011;7777;52.254;9.618;2022-08-03T04:53:58;4.70;;;2.23;;
15354;SDS011;7777;52.254;9.618;2022-08-03T04:56:26;5.70;;;1.90;;
15354;SDS011;7777;52.254;9.618;2022-08-03T04:58:51;2.97;;;2.30;;
15354;SDS011;7777;52.254;9.618;2022-08-03T05:01:17;4.70;;;2.57;;
15354;SDS011;7777;52.254;9.618;2022-08-03T05:03:44;5.73;;;2.33;;
15354;SDS011;7777;52.254;9.618;2022-08-03T05:06:11;3.97;;;2.33;;
15354;SDS011;7777;52.254;9.618;2022-08-03T05:08:37;4.77;;;2.00;;
15354;SDS011;7777;52.254;9.618;2022-08-03T05:11:03;4.10;;;2.60;;
15354;SDS011;7777;52.254;9.618;2022-08-03T05:13:29;3.43;;;1.93;;
15354;SDS011;7777;52.254;9.618;2022-08-03T05:15:57;5.77;;;2.20;;
15354;SDS011;7777;52.254;9.618;2022-08-03T05:18:23;6.13;;;2.20;;
15354;SDS011;7777;52.254;9.618;2022-08-03T05:20:49;2.57;;;1.97;;
15354;SDS011;7777;52.254;9.618;2022-08-03T05:23:15;2.47;;;1.90;;
15354;SDS011;7777;52.254;9.618;2022-08-03T05:25:41;5.50;;;2.40;;
15354;SDS011;7777;52.254;9.618;2022-08-03T05:28:06;2.37;;;2.10;;
15354;SDS011;7777;52.254;9.618;2022-08-03T05:30:32;5.17;;;2.27;;
15354;SDS011;7777;52.254;9.618;2022-08-03T05:32:58;4.70;;;2.40;;
15354;SDS011;7777;52.254;9.618;2022-08-03T05:35:24;3.73;;;2.30;;
15354;SDS011;7777;52.254;9.618;2022-08-03T05:37:50;3.90;;;2.20;;
15354;SDS011;7777;52.254;9.618;2022-08-03T05:40:16;2.80;;;2.20;;
15354;SDS011;7777;52.254;9.618;2022-08-03T05:42:41;3.57;;;2.40;;
15354;SDS011;7777;52.254;9.618;2022-08-03T05:45:07;6.57;;;2.80;;
15354;SDS011;7777;52.254;9.618;2022-08-03T05:47:38;6.13;;;2.13;;
15354;SDS011;7777;52.254;9.618;2022-08-03T05:50:06;3.87;;;2.33;;
15354;SDS011;7777;52.254;9.618;2022-08-03T05:52:32;2.70;;;1.90;;
15354;SDS011;7777;52.254;9.618;2022-08-03T05:54:58;5.23;;;2.50;;
15354;SDS011;7777;52.254;9.618;2022-08-03T05:57:24;7.30;;;2.13;;
15354;SDS011;7777;52.254;9.618;2022-08-03T05:59:50;5.20;;;2.13;;
15354;SDS011;7777;52.254;9.618;2022-08-03T06:02:16;5.27;;;2.63;;
15354;SDS011;7777;52.254;9.618;2022-08-03T06:04:41;4.67;;;2.00;;
15354;SDS011;7777;52.254;9.618;2022-08-03T06:07:07;5.87;;;2.70;;
15354;SDS011;7777;52.254;9.618;2022-08-03T06:09:33;7.17;;;2.10;;
15354;SDS011;7777;52.254;9.618;2022-08-03T06:11:58;2.90;;;2.07;;
15354;SDS011;7777;52.254;9.618;2022-08-03T06:14:24;5.03;;;2.30;;
15354;SDS011;7777;52.254;9.618;2022-08-03T06:16:50;7.60;;;2.37;;
15354;SDS011;7777;52.254;9.618;2022-08-03T06:19:15;3.37;;;2.27;;
15354;SDS011;7777;52.254;9.618;2022-08-03T06:21:41;8.60;;;2.40;;
15354;SDS011;7777;52.254;9.618;2022-08-03T06:24:07;3.87;;;2.30;;
15354;SDS011;7777;52.254;9.618;2022-08-03T06:26:33;3.20;;;1.87;;
15354;SDS011;7777;52.254;9.618;2022-08-03T06:28:59;2.40;;;2.00;;
15354;SDS011;7777;52.254;9.618;2022-08-03T06:31:27;2.17;;;1.60;;
15354;SDS011;7777;52.254;9.618;2022-08-03T06:33:54;2.20;;;1.90;;
15354;SDS011;7777;52.254;9.618;2022-08-03T06:36:19;6.97;;;2.20;;
15354;SDS011;7777;52.254;9.618;2022-08-03T06:38:45;4.73;;;2.10;;
15354;SDS011;7777;52.254;9.618;2022-08-03T06:41:11;3.00;;;1.87;;
15354;SDS011;7777;52.254;9.618;2022-08-03T06:43:37;3.17;;;1.97;;
15354;SDS011;7777;52.254;9.618;2022-08-03T06:46:03;2.83;;;1.80;;
15354;SDS011;7777;52.254;9.618;2022-08-03T06:48:29;5.07;;;1.80;;
15354;SDS011;7777;52.254;9.618;2022-08-03T06:50:55;5.33;;;1.67;;
15354;SDS011;7777;52.254;9.618;2022-08-03T06:53:21;2.50;;;2.00;;
15354;SDS011;7777;52.254;9.618;2022-08-03T06:55:47;2.37;;;1.80;;
15354;SDS011;7777;52.254;9.618;2022-08-03T06:58:13;3.97;;;2.00;;
15354;SDS011;7777;52.254;9.618;2022-08-03T07:00:38;7.77;;;2.07;;
15354;SDS011;7777;52.254;9.618;2022-08-03T07:03:04;6.00;;;1.90;;
15354;SDS011;7777;52.254;9.618;2022-08-03T07:05:30;2.70;;;1.77;;
15354;SDS011;7777;52.254;9.618;2022-08-03T07:07:59;3.33;;;1.90;;
15354;SDS011;7777;52.254;9.618;2022-08-03T07:10:26;6.63;;;2.30;;
15354;SDS011;7777;52.254;9.618;2022-08-03T07:12:52;4.07;;;2.17;;
15354;SDS011;7777;52.254;9.618;2022-08-03T07:15:18;3.50;;;1.90;;
15354;SDS011;7777;52.254;9.618;2022-08-03T07:17:44;4.53;;;2.00;;
15354;SDS011;7777;52.254;9.618;2022-08-03T07:20:10;3.13;;;1.87;;
15354;SDS011;7777;52.254;9.618;2022-08-03T07:22:37;3.63;;;2.00;;
15354;SDS011;7777;52.254;9.618;2022-08-03T07:25:03;5.13;;;2.17;;
15354;SDS011;7777;52.254;9.618;2022-08-03T07:27:29;7.63;;;1.80;;
15354;SDS011;7777;52.254;9.618;2022-08-03T07:29:56;2.77;;;2.17;;
15354;SDS011;7777;52.254;9.618;2022-08-03T07:32:22;2.40;;;1.80;;
15354;SDS011;7777;52.254;9.618;2022-08-03T07:34:49;3.27;;;1.93;;
15354;SDS011;7777;52.254;9.618;2022-08-03T07:37:15;2.87;;;1.63;;
15354;SDS011;7777;52.254;9.618;2022-08-03T07:39:44;2.57;;;1.50;;
15354;SDS011;7777;52.254;9.618;2022-08-03T07:42:09;2.67;;;1.60;;
15354;SDS011;7777;52.254;9.618;2022-08-03T07:44:35;2.13;;;1.63;;
15354;SDS011;7777;52.254;9.618;2022-08-03T07:47:01;4.50;;;1.60;;
15354;SDS011;7777;52.254;9.618;2022-08-03T07:49:26;4.83;;;1.80;;
15354;SDS011;7777;52.254;9.618;2022-08-03T07:51:52;6.73;;;1.80;;
15354;SDS011;7777;52.254;9.618;2022-08-03T07:54:36;2.27;;;1.70;;
15354;SDS011;7777;52.254;9.618;2022-08-03T07:57:02;3.90;;;1.93;;
15354;SDS011;7777;52.254;9.618;2022-08-03T07:59:28;4.10;;;1.80;;
15354;SDS011;7777;52.254;9.618;2022-08-03T08:01:53;3.33;;;1.70;;
15354;SDS011;7777;52.254;9.618;2022-08-03T08:04:20;5.30;;;1.80;;
15354;SDS011;7777;52.254;9.618;2022-08-03T08:06:46;4.97;;;1.80;;
15354;SDS011;7777;52.254;9.618;2022-08-03T08:09:12;4.33;;;1.70;;
15354;SDS011;7777;52.254;9.618;2022-08-03T08:11:39;2.57;;;1.83;;
15354;SDS011;7777;52.254;9.618;2022-08-03T08:14:04;4.07;;;1.60;;
15354;SDS011;7777;52.254;9.618;2022-08-03T08:16:31;3.13;;;1.70;;
15354;SDS011;7777;52.254;9.618;2022-08-03T08:18:57;4.07;;;1.90;;
15354;SDS011;7777;52.254;9.618;2022-08-03T08:21:23;3.90;;;1.87;;
15354;SDS011;7777;52.254;9.618;2022-08-03T08:23:48;4.23;;;2.00;;
15354;SDS011;7777;52.254;9.618;2022-08-03T08:26:14;2.80;;;1.77;;
15354;SDS011;7777;52.254;9.618;2022-08-03T08:28:40;3.30;;;1.90;;
15354;SDS011;7777;52.254;9.618;2022-08-03T08:31:06;3.37;;;2.00;;
15354;SDS011;7777;52.254;9.618;2022-08-03T08:33:31;3.20;;;1.90;;
15354;SDS011;7777;52.254;9.618;2022-08-03T08:35:58;3.33;;;1.83;;
15354;SDS011;7777;52.254;9.618;2022-08-03T08:38:24;4.57;;;2.20;;
15354;SDS011;7777;52.254;9.618;2022-08-03T08:40:50;5.87;;;1.80;;
15354;SDS011;7777;52.254;9.618;2022-08-03T08:43:19;3.93;;;1.93;;
15354;SDS011;7777;52.254;9.618;2022-08-03T08:45:45;4.43;;;1.87;;
15354;SDS011;7777;52.254;9.618;2022-08-03T08:48:16;4.43;;;2.23;;
15354;SDS011;7777;52.254;9.618;2022-08-03T08:50:51;5.47;;;2.03;;
15354;SDS011;7777;52.254;9.618;2022-08-03T08:53:18;6.27;;;1.83;;
15354;SDS011;7777;52.254;9.618;2022-08-03T08:55:45;6.23;;;1.40;;
15354;SDS011;7777;52.254;9.618;2022-08-03T08:58:12;4.70;;;1.77;;
15354;SDS011;7777;52.254;9.618;2022-08-03T09:00:43;3.60;;;1.53;;
15354;SDS011;7777;52.254;9.618;2022-08-03T09:03:10;3.23;;;1.40;;
15354;SDS011;7777;52.254;9.618;2022-08-03T09:05:38;4.67;;;1.60;;
15354;SDS011;7777;52.254;9.618;2022-08-03T09:08:06;5.83;;;1.43;;
15354;SDS011;7777;52.254;9.618;2022-08-03T09:10:33;3.13;;;1.30;;
15354;SDS011;7777;52.254;9.618;2022-08-03T09:12:59;4.30;;;1.80;;
15354;SDS011;7777;52.254;9.618;2022-08-03T09:15:29;3.33;;;1.77;;
15354;SDS011;7777;52.254;9.618;2022-08-03T09:17:58;3.57;;;1.20;;
15354;SDS011;7777;52.254;9.618;2022-08-03T09:20:26;4.40;;;1.40;;
15354;SDS011;7777;52.254;9.618;2022-08-03T09:23:02;2.13;;;1.13;;
15354;SDS011;7777;52.254;9.618;2022-08-03T09:25:37;7.03;;;1.50;;
15354;SDS011;7777;52.254;9.618;2022-08-03T09:30:36;6.17;;;1.80;;
15354;SDS011;7777;52.254;9.618;2022-08-03T09:33:08;4.63;;;1.77;;
15354;SDS011;7777;52.254;9.618;2022-08-03T09:35:40;4.67;;;1.70;;
15354;SDS011;7777;52.254;9.618;2022-08-03T09:38:21;5.30;;;1.47;;
15354;SDS011;7777;52.254;9.618;2022-08-03T09:40:50;7.37;;;2.27;;
15354;SDS011;7777;52.254;9.618;2022-08-03T09:43:17;5.60;;;2.33;;
15354;SDS011;7777;52.254;9.618;2022-08-03T09:45:44;4.70;;;1.77;;
15354;SDS011;7777;52.254;9.618;2022-08-03T09:50:50;5.77;;;2.13;;
15354;SDS011;7777;52.254;9.618;2022-08-03T09:53:22;4.85;;;1.90;;
15354;SDS011;7777;52.254;9.618;2022-08-03T09:55:52;2.60;;;1.70;;
15354;SDS011;7777;52.254;9.618;2022-08-03T09:58:24;4.00;;;2.03;;
15354;SDS011;7777;52.254;9.618;2022-08-03T10:01:04;2.00;;;1.60;;
15354;SDS011;7777;52.254;9.618;2022-08-03T10:03:32;3.07;;;1.60;;
15354;SDS011;7777;52.254;9.618;2022-08-03T10:06:17;5.07;;;1.75;;
15354;SDS011;7777;52.254;9.618;2022-08-03T10:08:45;2.35;;;1.60;;
15354;SDS011;7777;52.254;9.618;2022-08-03T10:11:11;4.40;;;1.83;;
15354;SDS011;7777;52.254;9.618;2022-08-03T10:13:37;6.57;;;1.97;;
15354;SDS011;7777;52.254;9.618;2022-08-03T10:16:04;5.20;;;1.83;;
15354;SDS011;7777;52.254;9.618;2022-08-03T10:18:31;5.43;;;1.80;;
15354;SDS011;7777;52.254;9.618;2022-08-03T10:21:03;2.40;;;1.60;;
15354;SDS011;7777;52.254;9.618;2022-08-03T10:23:33;3.25;;;1.75;;
15354;SDS011;7777;52.254;9.618;2022-08-03T10:26:01;4.32;;;2.13;;
15354;SDS011;7777;52.254;9.618;2022-08-03T10:28:36;5.57;;;1.90;;
15354;SDS011;7777;52.254;9.618;2022-08-03T10:31:06;5.07;;;1.80;;
15354;SDS011;7777;52.254;9.618;2022-08-03T10:33:36;5.05;;;1.88;;
15354;SDS011;7777;52.254;9.618;2022-08-03T10:36:06;3.70;;;1.70;;
15354;SDS011;7777;52.254;9.618;2022-08-03T10:38:42;4.32;;;2.03;;
15354;SDS011;7777;52.254;9.618;2022-08-03T10:41:14;2.80;;;1.65;;
15354;SDS011;7777;52.254;9.618;2022-08-03T10:43:46;2.80;;;1.50;;
15354;SDS011;7777;52.254;9.618;2022-08-03T10:46:18;3.78;;;2.10;;
15354;SDS011;7777;52.254;9.618;2022-08-03T10:48:46;2.38;;;1.52;;
15354;SDS011;7777;52.254;9.618;2022-08-03T10:51:13;2.95;;;1.90;;
15354;SDS011;7777;52.254;9.618;2022-08-03T10:53:40;2.38;;;1.70;;
15354;SDS011;7777;52.254;9.618;2022-08-03T11:02:11;3.38;;;1.58;;
15354;SDS011;7777;52.254;9.618;2022-08-03T11:04:39;4.70;;;1.65;;
15354;SDS011;7777;52.254;9.618;2022-08-03T11:09:41;5.78;;;1.90;;
15354;SDS011;7777;52.254;9.618;2022-08-03T11:15:04;3.05;;;1.80;;
15354;SDS011;7777;52.254;9.618;2022-08-03T11:17:34;3.70;;;1.80;;
15354;SDS011;7777;52.254;9.618;2022-08-03T11:20:00;2.45;;;1.52;;
15354;SDS011;7777;52.254;9.618;2022-08-03T11:22:47;2.33;;;1.45;;
15354;SDS011;7777;52.254;9.618;2022-08-03T11:25:14;2.92;;;1.60;;
15354;SDS011;7777;52.254;9.618;2022-08-03T11:27:40;3.13;;;1.63;;
15354;SDS011;7777;52.254;9.618;2022-08-03T11:35:19;2.45;;;1.35;;
15354;SDS011;7777;52.254;9.618;2022-08-03T11:45:58;4.55;;;1.42;;
15354;SDS011;7777;52.254;9.618;2022-08-03T11:48:39;5.82;;;1.83;;
15354;SDS011;7777;52.254;9.618;2022-08-03T11:51:17;3.70;;;1.65;;
15354;SDS011;7777;52.254;9.618;2022-08-03T11:53:53;4.70;;;1.75;;
15354;SDS011;7777;52.254;9.618;2022-08-03T11:56:50;5.30;;;1.70;;
15354;SDS011;7777;52.254;9.618;2022-08-03T11:59:16;3.75;;;1.70;;
15354;SDS011;7777;52.254;9.618;2022-08-03T12:01:42;2.33;;;1.50;;
15354;SDS011;7777;52.254;9.618;2022-08-03T12:04:09;3.60;;;1.70;;
15354;SDS011;7777;52.254;9.618;2022-08-03T12:06:35;3.75;;;1.75;;
15354;SDS011;7777;52.254;9.618;2022-08-03T12:09:20;3.35;;;1.50;;
15354;SDS011;7777;52.254;9.618;2022-08-03T12:11:49;4.57;;;2.00;;
15354;SDS011;7777;52.254;9.618;2022-08-03T12:14:16;7.40;;;1.52;;
15354;SDS011;7777;52.254;9.618;2022-08-03T12:16:46;3.88;;;1.70;;
15354;SDS011;7777;52.254;9.618;2022-08-03T12:19:12;6.53;;;1.75;;
15354;SDS011;7777;52.254;9.618;2022-08-03T12:21:45;2.50;;;1.60;;
15354;SDS011;7777;52.254;9.618;2022-08-03T12:24:13;2.45;;;1.65;;
15354;SDS011;7777;52.254;9.618;2022-08-03T12:26:44;2.55;;;1.90;;
15354;SDS011;7777;52.254;9.618;2022-08-03T12:29:18;3.05;;;1.85;;
15354;SDS011;7777;52.254;9.618;2022-08-03T12:31:46;3.50;;;1.67;;
15354;SDS011;7777;52.254;9.618;2022-08-03T12:34:13;3.38;;;1.73;;
15354;SDS011;7777;52.254;9.618;2022-08-03T12:36:48;2.88;;;1.83;;
15354;SDS011;7777;52.254;9.618;2022-08-03T12:39:23;7.47;;;1.98;;
15354;SDS011;7777;52.254;9.618;2022-08-03T12:41:54;3.30;;;1.58;;
15354;SDS011;7777;52.254;9.618;2022-08-03T12:44:30;3.65;;;1.30;;
15354;SDS011;7777;52.254;9.618;2022-08-03T12:46:58;1.65;;;1.02;;
15354;SDS011;7777;52.254;9.618;2022-08-03T12:49:25;5.03;;;1.80;;
15354;SDS011;7777;52.254;9.618;2022-08-03T12:54:19;1.85;;;1.10;;
15354;SDS011;7777;52.254;9.618;2022-08-03T12:57:00;6.10;;;1.52;;
15354;SDS011;7777;52.254;9.618;2022-08-03T12:59:34;2.17;;;1.55;;
15354;SDS011;7777;52.254;9.618;2022-08-03T13:02:12;3.42;;;1.48;;
15354;SDS011;7777;52.254;9.618;2022-08-03T13:04:43;4.70;;;1.95;;
15354;SDS011;7777;52.254;9.618;2022-08-03T13:07:12;6.43;;;1.52;;
15354;SDS011;7777;52.254;9.618;2022-08-03T13:09:40;2.50;;;1.50;;
15354;SDS011;7777;52.254;9.618;2022-08-03T13:12:20;2.65;;;1.52;;
15354;SDS011;7777;52.254;9.618;2022-08-03T13:14:50;3.13;;;1.42;;
15354;SDS011;7777;52.254;9.618;2022-08-03T13:17:21;6.70;;;1.60;;
15354;SDS011;7777;52.254;9.618;2022-08-03T13:19:47;4.07;;;1.50;;
15354;SDS011;7777;52.254;9.618;2022-08-03T13:22:18;6.10;;;1.70;;
15354;SDS011;7777;52.254;9.618;2022-08-03T13:24:55;3.95;;;1.55;;
15354;SDS011;7777;52.254;9.618;2022-08-03T13:27:22;5.68;;;1.50;;
15354;SDS011;7777;52.254;9.618;2022-08-03T13:29:49;2.40;;;1.70;;
15354;SDS011;7777;52.254;9.618;2022-08-03T13:32:16;4.95;;;1.50;;
15354;SDS011;7777;52.254;9.618;2022-08-03T13:34:43;3.42;;;1.50;;
15354;SDS011;7777;52.254;9.618;2022-08-03T13:37:09;2.95;;;1.50;;
15354;SDS011;7777;52.254;9.618;2022-08-03T13:39:36;3.53;;;1.60;;
15354;SDS011;7777;52.254;9.618;2022-08-03T13:42:02;7.78;;;1.75;;
15354;SDS011;7777;52.254;9.618;2022-08-03T13:44:29;3.33;;;1.88;;
15354;SDS011;7777;52.254;9.618;2022-08-03T13:46:56;2.53;;;1.67;;
15354;SDS011;7777;52.254;9.618;2022-08-03T13:49:21;1.73;;;1.42;;
15354;SDS011;7777;52.254;9.618;2022-08-03T13:51:47;6.07;;;1.70;;
15354;SDS011;7777;52.254;9.618;2022-08-03T13:54:13;3.47;;;1.60;;
15354;SDS011;7777;52.254;9.618;2022-08-03T13:56:39;4.80;;;2.03;;
15354;SDS011;7777;52.254;9.618;2022-08-03T13:59:04;4.78;;;1.45;;
15354;SDS011;7777;52.254;9.618;2022-08-03T14:01:30;2.80;;;1.63;;
15354;SDS011;7777;52.254;9.618;2022-08-03T14:03:56;2.63;;;1.50;;
15354;SDS011;7777;52.254;9.618;2022-08-03T14:06:22;2.75;;;1.55;;
15354;SDS011;7777;52.254;9.618;2022-08-03T14:08:50;2.85;;;1.50;;
15354;SDS011;7777;52.254;9.618;2022-08-03T14:11:16;2.70;;;1.27;;
15354;SDS011;7777;52.254;9.618;2022-08-03T14:13:42;2.40;;;1.27;;
15354;SDS011;7777;52.254;9.618;2022-08-03T14:16:08;3.35;;;1.75;;
15354;SDS011;7777;52.254;9.618;2022-08-03T14:18:34;1.90;;;1.33;;
15354;SDS011;7777;52.254;9.618;2022-08-03T14:21:01;1.30;;;1.20;;
15354;SDS011;7777;52.254;9.618;2022-08-03T14:23:29;3.10;;;1.58;;
15354;SDS011;7777;52.254;9.618;2022-08-03T14:25:54;1.83;;;1.30;;
15354;SDS011;7777;52.254;9.618;2022-08-03T14:28:21;1.77;;;1.30;;
15354;SDS011;7777;52.254;9.618;2022-08-03T14:30:47;3.00;;;1.52;;
15354;SDS011;7777;52.254;9.618;2022-08-03T14:33:14;2.08;;;1.45;;
15354;SDS011;7777;52.254;9.618;2022-08-03T14:35:40;3.00;;;1.65;;
15354;SDS011;7777;52.254;9.618;2022-08-03T14:38:06;7.60;;;2.00;;
15354;SDS011;7777;52.254;9.618;2022-08-03T14:40:32;1.73;;;1.40;;
15354;SDS011;7777;52.254;9.618;2022-08-03T14:43:00;5.25;;;1.65;;
15354;SDS011;7777;52.254;9.618;2022-08-03T14:45:26;3.17;;;1.58;;
15354;SDS011;7777;52.254;9.618;2022-08-03T14:47:52;4.43;;;1.63;;
15354;SDS011;7777;52.254;9.618;2022-08-03T14:50:18;3.17;;;1.65;;
15354;SDS011;7777;52.254;9.618;2022-08-03T14:52:44;2.95;;;1.30;;
15354;SDS011;7777;52.254;9.618;2022-08-03T14:55:09;3.65;;;1.50;;
15354;SDS011;7777;52.254;9.618;2022-08-03T14:57:35;4.57;;;1.50;;
15354;SDS011;7777;52.254;9.618;2022-08-03T15:00:01;4.28;;;1.45;;
15354;SDS011;7777;52.254;9.618;2022-08-03T15:02:28;5.68;;;1.50;;
15354;SDS011;7777;52.254;9.618;2022-08-03T15:04:54;2.03;;;1.35;;
15354;SDS011;7777;52.254;9.618;2022-08-03T15:07:20;3.17;;;1.65;;
15354;SDS011;7777;52.254;9.618;2022-08-03T15:09:46;4.07;;;1.60;;
15354;SDS011;7777;52.254;9.618;2022-08-03T15:12:12;2.53;;;1.35;;
15354;SDS011;7777;52.254;9.618;2022-08-03T15:14:38;6.22;;;1.35;;
15354;SDS011;7777;52.254;9.618;2022-08-03T15:17:04;1.88;;;1.30;;
15354;SDS011;7777;52.254;9.618;2022-08-03T15:19:30;5.20;;;1.40;;
15354;SDS011;7777;52.254;9.618;2022-08-03T15:21:56;1.45;;;1.17;;
15354;SDS011;7777;52.254;9.618;2022-08-03T15:24:22;3.88;;;1.50;;
15354;SDS011;7777;52.254;9.618;2022-08-03T15:26:48;4.07;;;1.70;;
15354;SDS011;7777;52.254;9.618;2022-08-03T15:29:16;2.25;;;1.38;;
15354;SDS011;7777;52.254;9.618;2022-08-03T15:31:42;2.72;;;1.38;;
15354;SDS011;7777;52.254;9.618;2022-08-03T15:34:08;4.93;;;1.40;;
15354;SDS011;7777;52.254;9.618;2022-08-03T15:36:35;3.35;;;1.20;;
15354;SDS011;7777;52.254;9.618;2022-08-03T15:39:01;3.45;;;1.75;;
15354;SDS011;7777;52.254;9.618;2022-08-03T15:41:28;2.28;;;1.33;;
15354;SDS011;7777;52.254;9.618;2022-08-03T15:43:53;4.70;;;1.40;;
15354;SDS011;7777;52.254;9.618;2022-08-03T15:46:19;2.67;;;1.40;;
15354;SDS011;7777;52.254;9.618;2022-08-03T15:48:45;2.38;;;1.40;;
15354;SDS011;7777;52.254;9.618;2022-08-03T15:51:11;2.38;;;1.25;;
15354;SDS011;7777;52.254;9.618;2022-08-03T15:53:37;3.55;;;1.52;;